Terminal Aerodrome Forecast
Issued by NWS Charleston, WV

Current Version | Previous Version | Graphics & Text | Print | Product List | Glossary On
Versions: 1 2 3 4 5 6 7 8 9 10 11 12 13 14 15 16 17 18 19 20 21 22 23 24
000
FTUS41 KRLX 040900 AAA
TAFBKW
TAF AMD
KBKW 040914Z 0409/0506 26007KT 2SM -RA BR SCT005 BKN025 OVC030
      TEMPO 0409/0411 3SM BKN007 OVC030
     FM041100 34006KT 3SM -RA OVC030
     FM041700 VRB03KT 5SM -RA BR OVC015
     FM050100 36009KT 2SM +RA BR OVC008=

USA.gov is the U.S. government's official web portal to all federal, state and local government web resources and services.